Time;durP1;ratioP1;P1;durP2;ratioP2;P2;SDS_P1;SDS_P2;PMS_P1;PMS_P2;Temp;Humidity;BMP_temperature;BMP_pressure;BME280_temperature;BME280_humidity;BME280_pressure;Samples;Min_cycle;Max_cycle;Signal;HPM_P1;HPM_P2
2023/05/24 00:01:13;;;;;;;2.67;2.67;;;21.30;69.60;;;;;;5094059;27;43562;-70
2023/05/24 00:03:41;;;;;;;3.13;3.10;;;21.20;69.80;;;;;;5092554;28;45308;-70
2023/05/24 00:06:09;;;;;;;3.03;2.93;;;21.20;70.20;;;;;;5094623;27;43486;-70
2023/05/24 00:08:37;;;;;;;3.13;3.03;;;21.20;70.20;;;;;;5094149;27;43419;-70
2023/05/24 00:11:06;;;;;;;2.97;2.87;;;21.10;70.10;;;;;;5094499;28;43731;-69
2023/05/24 00:13:35;;;;;;;3.17;3.07;;;21.10;70.20;;;;;;5093251;27;43519;-70
2023/05/24 00:16:03;;;;;;;3.47;3.37;;;21.10;70.30;;;;;;5093949;27;43407;-69
2023/05/24 00:18:31;;;;;;;2.90;2.90;;;21.00;70.60;;;;;;5093505;27;43449;-69
2023/05/24 00:20:59;;;;;;;3.00;2.90;;;21.00;70.50;;;;;;5092978;27;43577;-69
2023/05/24 00:23:27;;;;;;;2.97;2.87;;;21.00;70.40;;;;;;5089779;28;43472;-68
2023/05/24 00:25:55;;;;;;;3.33;3.23;;;21.00;70.40;;;;;;5094532;27;43374;-69
2023/05/24 00:28:23;;;;;;;3.20;3.10;;;20.90;70.40;;;;;;5094138;28;43371;-70
2023/05/24 00:30:53;;;;;;;3.07;2.97;;;20.90;70.70;;;;;;5090996;27;43619;-70
2023/05/24 00:33:22;;;;;;;2.70;2.67;;;21.00;70.70;;;;;;5091632;28;44677;-69
2023/05/24 00:35:53;;;;;;;2.70;2.70;;;21.10;70.40;;;;;;5092084;27;43453;-70
2023/05/24 00:38:21;;;;;;;2.90;2.80;;;21.20;70.00;;;;;;5093416;27;43400;-69
2023/05/24 00:40:49;;;;;;;3.10;3.00;;;21.30;69.70;;;;;;5093281;27;43862;-70
2023/05/24 00:43:17;;;;;;;2.93;2.83;;;21.30;69.60;;;;;;5087893;27;44613;-69
2023/05/24 00:45:45;;;;;;;2.57;2.47;;;21.30;69.60;;;;;;5093920;27;43324;-70
2023/05/24 00:48:15;;;;;;;2.57;2.50;;;21.20;69.50;;;;;;5092623;28;43418;-69
2023/05/24 00:50:43;;;;;;;2.97;2.87;;;21.20;70.00;;;;;;5092755;27;43593;-69
2023/05/24 00:53:11;;;;;;;2.63;2.60;;;21.10;70.20;;;;;;5091552;28;44705;-69
2023/05/24 00:55:39;;;;;;;2.53;2.53;;;21.10;70.20;;;;;;5092041;28;44085;-69
2023/05/24 00:58:07;;;;;;;2.70;2.70;;;21.10;70.20;;;;;;5091429;27;43768;-69
2023/05/24 01:00:35;;;;;;;3.10;3.00;;;21.00;70.10;;;;;;5088272;28;43607;-69
2023/05/24 01:03:04;;;;;;;2.70;2.70;;;21.00;70.30;;;;;;5084856;27;43882;-70
2023/05/24 01:05:33;;;;;;;2.77;2.67;;;21.00;70.60;;;;;;5087957;27;44058;-69
2023/05/24 01:08:04;;;;;;;2.90;2.80;;;21.00;70.50;;;;;;5085765;28;43503;-69
2023/05/24 01:10:34;;;;;;;2.87;2.83;;;21.00;70.40;;;;;;5090077;27;43854;-69
2023/05/24 01:13:07;;;;;;;2.97;2.87;;;21.00;70.40;;;;;;5090172;27;43540;-69
2023/05/24 01:15:41;;;;;;;2.63;2.63;;;20.90;70.40;;;;;;5088647;28;43419;-68
2023/05/24 01:18:12;;;;;;;3.00;2.90;;;20.90;70.70;;;;;;5089262;28;43447;-70
2023/05/24 01:20:42;;;;;;;2.43;2.43;;;21.00;70.70;;;;;;5086674;28;43941;-69
2023/05/24 01:23:16;;;;;;;2.87;2.77;;;21.10;70.40;;;;;;5089266;27;43548;-70
2023/05/24 01:25:53;;;;;;;2.57;2.57;;;21.20;69.90;;;;;;5088522;27;43442;-69
2023/05/24 01:28:22;;;;;;;2.60;2.60;;;21.30;69.70;;;;;;5088344;28;43564;-69
2023/05/24 01:30:53;;;;;;;2.80;2.70;;;21.30;69.60;;;;;;5088003;27;43840;-69
2023/05/24 01:33:23;;;;;;;2.53;2.50;;;21.20;69.50;;;;;;5083329;28;43404;-69
2023/05/24 01:35:51;;;;;;;2.60;2.60;;;21.20;69.70;;;;;;5088088;27;43431;-69
2023/05/24 01:38:19;;;;;;;2.60;2.60;;;21.10;70.00;;;;;;5082408;28;43498;-69
2023/05/24 01:40:47;;;;;;;2.70;2.70;;;21.10;70.20;;;;;;5083394;28;43836;-68
2023/05/24 01:43:17;;;;;;;2.47;2.47;;;21.10;70.30;;;;;;5088756;28;45007;-69
2023/05/24 01:45:51;;;;;;;2.50;2.50;;;21.10;70.20;;;;;;5090169;27;43482;-69
2023/05/24 01:48:24;;;;;;;2.53;2.53;;;21.00;70.10;;;;;;5089470;27;43409;-69
2023/05/24 01:50:53;;;;;;;2.70;2.60;;;21.00;70.40;;;;;;5090904;27;45640;-68
2023/05/24 01:53:21;;;;;;;2.70;2.70;;;21.00;70.60;;;;;;5077191;28;45031;-70
2023/05/24 01:55:49;;;;;;;2.50;2.50;;;21.00;70.40;;;;;;5089878;28;43334;-70
2023/05/24 01:58:17;;;;;;;2.70;2.60;;;21.20;70.20;;;;;;5088348;28;44026;-69
2023/05/24 02:00:45;;;;;;;2.60;2.60;;;21.30;69.80;;;;;;5088187;27;45871;-69
2023/05/24 02:03:15;;;;;;;2.60;2.60;;;21.30;69.60;;;;;;5084620;28;43404;-69
2023/05/24 02:05:43;;;;;;;2.30;2.30;;;21.20;69.50;;;;;;5088154;27;43996;-69
2023/05/24 02:08:12;;;;;;;2.60;2.50;;;21.20;69.50;;;;;;5086575;28;44313;-69
2023/05/24 02:10:40;;;;;;;2.37;2.37;;;21.20;69.70;;;;;;5086963;28;46294;-69
2023/05/24 02:13:09;;;;;;;2.60;2.60;;;21.10;70.00;;;;;;5085794;28;44652;-69
2023/05/24 02:15:37;;;;;;;2.43;2.43;;;21.10;70.10;;;;;;5087597;28;43428;-69
2023/05/24 02:18:06;;;;;;;2.60;2.50;;;21.10;70.10;;;;;;5087683;28;43557;-69
2023/05/24 02:20:36;;;;;;;2.40;2.40;;;21.10;70.20;;;;;;5086119;27;43817;-69
2023/05/24 02:23:04;;;;;;;2.53;2.53;;;21.00;70.10;;;;;;5086823;27;45054;-69
2023/05/24 02:25:32;;;;;;;2.60;2.50;;;21.00;70.40;;;;;;5089184;27;43474;-68
2023/05/24 02:28:00;;;;;;;2.40;2.40;;;21.00;70.40;;;;;;5089315;28;43558;-68
2023/05/24 02:30:28;;;;;;;2.27;2.27;;;21.00;70.40;;;;;;5088562;28;43763;-70
2023/05/24 02:32:57;;;;;;;2.50;2.50;;;20.90;70.20;;;;;;5088171;28;43435;-70
2023/05/24 02:35:25;;;;;;;2.47;2.40;;;20.90;70.30;;;;;;5087207;28;44065;-70
2023/05/24 02:37:57;;;;;;;2.33;2.33;;;20.90;70.60;;;;;;5087987;28;43465;-70
2023/05/24 02:40:25;;;;;;;2.33;2.33;;;21.00;70.60;;;;;;5088274;28;43603;-70
2023/05/24 02:42:56;;;;;;;2.30;2.30;;;21.10;71.00;;;;;;5087052;28;44690;-70
2023/05/24 02:45:24;;;;;;;2.53;2.53;;;21.20;69.90;;;;;;5086802;28;43948;-69
2023/05/24 02:47:52;;;;;;;2.43;2.43;;;21.20;69.60;;;;;;5087207;28;43450;-70
2023/05/24 02:50:20;;;;;;;2.57;2.57;;;21.30;69.60;;;;;;5088146;27;43989;-70
2023/05/24 02:52:47;;;;;;;2.30;2.27;;;21.20;70.20;;;;;;5084216;28;44805;-69
2023/05/24 02:55:17;;;;;;;2.40;2.40;;;21.20;69.60;;;;;;5087629;27;43410;-70
2023/05/24 02:57:46;;;;;;;2.33;2.33;;;21.10;69.90;;;;;;5089248;27;43608;-70
2023/05/24 03:00:15;;;;;;;2.33;2.33;;;21.10;70.10;;;;;;5086932;28;45995;-70
2023/05/24 03:02:46;;;;;;;2.03;2.03;;;21.10;70.20;;;;;;5086993;28;43926;-69
2023/05/24 03:05:17;;;;;;;2.50;2.50;;;21.00;70.00;;;;;;5087280;28;43995;-70
2023/05/24 03:07:45;;;;;;;2.70;2.60;;;21.00;70.00;;;;;;5087586;28;43436;-70
2023/05/24 03:10:13;;;;;;;2.50;2.50;;;21.00;70.30;;;;;;5087129;27;44570;-71
2023/05/24 03:12:44;;;;;;;2.27;2.27;;;21.00;70.50;;;;;;5084302;28;44118;-70
2023/05/24 03:15:14;;;;;;;2.03;2.03;;;21.00;70.30;;;;;;5086825;27;43431;-69
2023/05/24 03:17:42;;;;;;;2.33;2.33;;;21.10;70.10;;;;;;5080104;27;43549;-70
2023/05/24 03:20:11;;;;;;;2.60;2.50;;;21.10;69.80;;;;;;5085201;27;45700;-70
2023/05/24 03:22:39;;;;;;;2.40;2.30;;;21.10;69.70;;;;;;5086235;28;45025;-70
2023/05/24 03:25:08;;;;;;;2.20;2.20;;;21.10;70.00;;;;;;5088560;27;43411;-70
2023/05/24 03:27:36;;;;;;;2.43;2.33;;;21.10;70.00;;;;;;5086724;27;43575;-70
2023/05/24 03:30:07;;;;;;;2.20;2.20;;;21.10;70.00;;;;;;5086774;27;45607;-69
2023/05/24 03:32:44;;;;;;;2.00;2.00;;;21.10;69.90;;;;;;5083863;27;43373;-69
2023/05/24 03:35:12;;;;;;;2.30;2.30;;;21.00;69.80;;;;;;5086757;27;43473;-69
2023/05/24 03:37:40;;;;;;;2.40;2.40;;;21.00;70.20;;;;;;5088497;27;43453;-69
2023/05/24 03:40:09;;;;;;;2.17;2.17;;;21.00;70.20;;;;;;5088056;27;46056;-69
2023/05/24 03:42:50;;;;;;;2.20;2.10;;;21.00;70.20;;;;;;5082915;27;43488;-71
2023/05/24 03:45:22;;;;;;;2.10;2.00;;;21.00;70.10;;;;;;5086569;27;43715;-70
2023/05/24 03:48:06;;;;;;;2.17;2.07;;;20.90;70.10;;;;;;5086560;27;43557;-70
2023/05/24 03:50:34;;;;;;;1.93;1.93;;;20.90;70.50;;;;;;5085996;28;45766;-70
2023/05/24 03:53:02;;;;;;;2.37;2.27;;;21.00;70.50;;;;;;5086180;28;44987;-70
2023/05/24 03:55:30;;;;;;;2.20;2.20;;;21.00;70.10;;;;;;5086453;28;44009;-69
2023/05/24 03:57:58;;;;;;;2.47;2.37;;;21.10;70.00;;;;;;5086542;28;43569;-70
2023/05/24 04:00:28;;;;;;;2.60;2.50;;;21.10;69.90;;;;;;5087617;27;43711;-69
2023/05/24 04:02:56;;;;;;;2.97;2.60;;;21.10;70.00;;;;;;5086032;28;43459;-70
2023/05/24 04:05:25;;;;;;;2.50;2.50;;;21.10;70.10;;;;;;5086257;28;44127;-70
2023/05/24 04:07:54;;;;;;;2.30;2.30;;;21.10;70.10;;;;;;5087971;27;43826;-69
2023/05/24 04:10:22;;;;;;;2.23;2.13;;;21.10;70.00;;;;;;5077064;27;45392;-70
2023/05/24 04:12:50;;;;;;;2.97;2.87;;;21.00;69.90;;;;;;5086851;28;43494;-70
2023/05/24 04:15:18;;;;;;;2.90;2.77;;;21.00;70.10;;;;;;5087542;27;43428;-69
2023/05/24 04:17:53;;;;;;;2.90;2.70;;;21.00;70.30;;;;;;5086586;28;43498;-70
2023/05/24 04:20:24;;;;;;;2.80;2.53;;;21.00;70.30;;;;;;5081130;28;45887;-70
2023/05/24 04:22:52;;;;;;;3.10;2.90;;;21.00;70.20;;;;;;5084834;27;43577;-69
2023/05/24 04:25:20;;;;;;;3.50;3.20;;;20.90;70.10;;;;;;5083212;28;43779;-71
2023/05/24 04:27:50;;;;;;;3.50;3.20;;;20.90;70.40;;;;;;5088074;27;43377;-70
2023/05/24 04:30:18;;;;;;;3.57;3.37;;;20.90;70.40;;;;;;5086240;28;45842;-71
2023/05/24 04:32:48;;;;;;;3.17;2.97;;;21.00;70.30;;;;;;5079923;28;45053;-70
2023/05/24 04:35:17;;;;;;;5.57;3.70;;;21.10;69.90;;;;;;5080975;28;43420;-70
2023/05/24 04:37:45;;;;;;;4.80;3.40;;;21.20;69.50;;;;;;5083256;27;43971;-69
2023/05/24 04:40:14;;;;;;;5.00;3.80;;;21.30;69.60;;;;;;5085450;28;45989;-70
2023/05/24 04:42:42;;;;;;;4.23;3.90;;;21.20;69.30;;;;;;5086780;27;43439;-69
2023/05/24 04:45:11;;;;;;;4.73;3.67;;;21.20;69.40;;;;;;5090391;27;43369;-70
2023/05/24 04:47:39;;;;;;;5.27;3.90;;;21.10;69.40;;;;;;5085541;28;43403;-71
2023/05/24 04:50:09;;;;;;;4.20;3.77;;;21.10;70.00;;;;;;5089392;27;43674;-70
2023/05/24 04:52:37;;;;;;;4.43;3.47;;;21.10;70.00;;;;;;5090768;28;43458;-70
2023/05/24 04:55:06;;;;;;;4.63;3.73;;;21.00;69.80;;;;;;5090474;27;43428;-70
2023/05/24 04:57:34;;;;;;;4.30;3.60;;;21.00;69.90;;;;;;5091036;27;43400;-69
2023/05/24 05:00:03;;;;;;;6.13;4.13;;;21.00;70.00;;;;;;5090136;28;43762;-69
2023/05/24 05:02:31;;;;;;;4.47;4.00;;;20.90;70.30;;;;;;5090260;28;43944;-69
2023/05/24 05:05:00;;;;;;;5.50;3.83;;;20.90;70.20;;;;;;5088989;28;43570;-70
2023/05/24 05:07:29;;;;;;;6.77;3.63;;;20.90;70.10;;;;;;5090889;27;45348;-69
2023/05/24 05:09:57;;;;;;;6.10;4.20;;;20.90;70.10;;;;;;5088896;27;45418;-70
2023/05/24 05:12:25;;;;;;;4.60;3.87;;;20.90;70.30;;;;;;5094019;27;44672;-69
2023/05/24 05:14:53;;;;;;;4.87;3.80;;;20.90;70.50;;;;;;5088869;28;43493;-71
2023/05/24 05:17:21;;;;;;;7.00;4.07;;;20.90;70.40;;;;;;5091009;27;43400;-71
2023/05/24 05:19:49;;;;;;;4.47;4.07;;;21.00;70.10;;;;;;5093093;27;43960;-71
2023/05/24 05:22:17;;;;;;;6.53;4.03;;;21.10;69.90;;;;;;5090217;27;43451;-70
2023/05/24 05:24:46;;;;;;;4.43;3.70;;;21.10;69.70;;;;;;5090361;27;44073;-69
2023/05/24 05:27:14;;;;;;;4.10;3.70;;;21.10;69.90;;;;;;5090722;27;43403;-70
2023/05/24 05:29:42;;;;;;;4.93;4.20;;;21.10;69.90;;;;;;5090104;27;43623;-70
2023/05/24 05:32:10;;;;;;;4.07;3.67;;;21.10;69.90;;;;;;5087332;27;43449;-70
2023/05/24 05:34:38;;;;;;;4.27;3.90;;;21.10;69.80;;;;;;5088825;27;43384;-69
2023/05/24 05:37:07;;;;;;;4.63;3.80;;;21.00;69.80;;;;;;5090217;27;43489;-70
2023/05/24 05:39:35;;;;;;;4.17;3.70;;;21.00;70.10;;;;;;5089893;27;43579;-70
2023/05/24 05:42:05;;;;;;;4.67;3.73;;;20.90;70.10;;;;;;5089769;28;43388;-69
2023/05/24 05:44:33;;;;;;;3.70;3.40;;;20.90;70.10;;;;;;5087481;28;43943;-69
2023/05/24 05:47:02;;;;;;;3.80;3.50;;;20.90;70.10;;;;;;5089794;27;43441;-69
2023/05/24 05:49:31;;;;;;;3.70;3.40;;;20.90;70.10;;;;;;5089322;27;43823;-71
2023/05/24 05:51:59;;;;;;;4.23;3.87;;;20.80;70.30;;;;;;5089805;27;43873;-69
2023/05/24 05:54:27;;;;;;;4.03;3.60;;;20.90;70.40;;;;;;5089589;27;43459;-69
2023/05/24 05:56:55;;;;;;;3.50;3.30;;;21.00;70.30;;;;;;5089845;28;43470;-69
2023/05/24 05:59:25;;;;;;;4.33;4.03;;;21.00;70.00;;;;;;5089495;27;43817;-69
2023/05/24 06:01:53;;;;;;;4.47;3.93;;;21.00;69.80;;;;;;5090506;27;44494;-70
2023/05/24 06:04:21;;;;;;;3.60;3.30;;;21.00;69.70;;;;;;5082543;27;43823;-70
2023/05/24 06:06:49;;;;;;;3.40;3.20;;;21.00;70.10;;;;;;5089706;27;43399;-69
2023/05/24 06:09:17;;;;;;;4.67;3.57;;;21.00;70.00;;;;;;5087179;28;44105;-70
2023/05/24 06:11:45;;;;;;;4.20;3.60;;;20.90;69.90;;;;;;5089816;28;43409;-69
2023/05/24 06:14:18;;;;;;;5.27;3.87;;;20.90;69.90;;;;;;5090714;27;43390;-71
2023/05/24 06:16:48;;;;;;;3.87;3.63;;;20.90;69.90;;;;;;5089984;27;43472;-71
2023/05/24 06:19:17;;;;;;;3.80;3.47;;;20.90;70.30;;;;;;5086597;27;43840;-70
2023/05/24 06:21:46;;;;;;;3.37;3.17;;;20.90;70.30;;;;;;5089425;27;43343;-70
2023/05/24 06:24:19;;;;;;;4.10;3.70;;;21.00;70.10;;;;;;5089104;27;43360;-69
2023/05/24 06:26:47;;;;;;;3.60;3.30;;;21.00;69.80;;;;;;5089429;27;43417;-69
2023/05/24 06:29:15;;;;;;;4.07;3.30;;;21.00;69.70;;;;;;5088407;27;43847;-70
2023/05/24 06:31:43;;;;;;;4.30;3.40;;;21.00;69.70;;;;;;5089009;27;43418;-69
2023/05/24 06:34:15;;;;;;;4.40;3.37;;;21.00;70.00;;;;;;5089005;27;43385;-70
2023/05/24 06:36:46;;;;;;;3.60;3.30;;;21.00;70.00;;;;;;5083396;28;43454;-69
2023/05/24 06:39:14;;;;;;;3.53;3.27;;;21.00;69.80;;;;;;5082531;28;43666;-70
2023/05/24 06:41:42;;;;;;;4.27;3.47;;;20.90;69.80;;;;;;5088695;28;44076;-70
2023/05/24 06:44:10;;;;;;;3.47;3.17;;;20.90;70.00;;;;;;5089022;28;43463;-71
2023/05/24 06:46:38;;;;;;;3.60;3.30;;;20.90;70.30;;;;;;5088944;27;43390;-70
2023/05/24 06:49:06;;;;;;;3.70;3.40;;;20.90;70.20;;;;;;5088744;27;43687;-70
2023/05/24 06:51:36;;;;;;;3.37;3.10;;;20.80;70.00;;;;;;5088250;27;43475;-71
2023/05/24 06:54:05;;;;;;;3.60;3.40;;;20.80;70.00;;;;;;5087755;27;43426;-70
2023/05/24 06:56:33;;;;;;;3.23;3.10;;;20.80;70.20;;;;;;5089111;27;43497;-69
2023/05/24 06:59:01;;;;;;;3.90;3.60;;;20.80;71.20;;;;;;5088970;28;43557;-69
2023/05/24 07:01:29;;;;;;;3.60;3.40;;;20.80;70.30;;;;;;5088744;27;43438;-70
2023/05/24 07:03:58;;;;;;;3.27;3.07;;;20.90;70.00;;;;;;5092924;27;43480;-70
2023/05/24 07:06:26;;;;;;;3.10;2.90;;;21.00;69.90;;;;;;5086723;27;43424;-70
2023/05/24 07:08:55;;;;;;;3.43;3.13;;;21.00;69.80;;;;;;5087258;28;43782;-70
2023/05/24 07:11:23;;;;;;;3.53;3.00;;;21.00;69.80;;;;;;5088400;28;43379;-70
2023/05/24 07:13:51;;;;;;;2.80;2.70;;;20.90;70.00;;;;;;5087840;27;43385;-69
2023/05/24 07:16:19;;;;;;;3.50;3.20;;;20.90;69.90;;;;;;5088543;27;43898;-70
2023/05/24 07:18:47;;;;;;;2.90;2.70;;;20.90;69.80;;;;;;5086644;28;43603;-70
2023/05/24 07:21:15;;;;;;;3.30;2.87;;;20.90;69.90;;;;;;5087119;28;44750;-70
2023/05/24 07:23:43;;;;;;;3.37;3.07;;;20.90;70.00;;;;;;5087703;28;43481;-70
2023/05/24 07:26:12;;;;;;;3.37;3.07;;;20.80;70.20;;;;;;5088609;27;43300;-69
2023/05/24 07:28:40;;;;;;;3.50;3.20;;;20.80;70.00;;;;;;5088112;27;43590;-70
2023/05/24 07:31:08;;;;;;;3.03;2.83;;;20.80;70.70;;;;;;5082356;28;45029;-69
2023/05/24 07:33:37;;;;;;;2.90;2.80;;;20.80;70.80;;;;;;5087529;27;43399;-70
2023/05/24 07:36:06;;;;;;;3.20;2.90;;;20.80;70.20;;;;;;5088410;27;43386;-70
2023/05/24 07:38:37;;;;;;;3.00;2.70;;;20.80;70.50;;;;;;5087031;27;44006;-70
2023/05/24 07:41:06;;;;;;;2.80;2.70;;;20.80;70.40;;;;;;5086307;28;44665;-69
2023/05/24 07:43:36;;;;;;;3.00;2.80;;;20.90;70.10;;;;;;5088019;27;43348;-70
2023/05/24 07:46:05;;;;;;;2.87;2.67;;;21.00;69.70;;;;;;5088565;27;43403;-69
2023/05/24 07:48:33;;;;;;;3.00;2.83;;;21.10;69.50;;;;;;5087390;27;43815;-69
2023/05/24 07:51:01;;;;;;;2.43;2.30;;;21.00;69.30;;;;;;5087961;27;43327;-70
2023/05/24 07:53:29;;;;;;;2.37;2.27;;;21.00;70.00;;;;;;5087359;27;43483;-70
2023/05/24 07:55:57;;;;;;;3.17;2.97;;;21.00;69.60;;;;;;5087484;27;43465;-69
2023/05/24 07:58:25;;;;;;;2.90;2.70;;;20.90;69.90;;;;;;5087839;27;43594;-70
2023/05/24 08:00:54;;;;;;;2.97;2.87;;;20.90;70.10;;;;;;5087077;28;43592;-69
2023/05/24 08:03:24;;;;;;;2.60;2.50;;;20.80;69.90;;;;;;5087777;27;43500;-70
2023/05/24 08:05:52;;;;;;;3.00;2.80;;;20.80;69.90;;;;;;5088152;27;43486;-70
2023/05/24 08:08:20;;;;;;;3.10;2.90;;;20.80;70.00;;;;;;5087243;27;43606;-70
2023/05/24 08:10:48;;;;;;;3.00;2.80;;;20.70;70.20;;;;;;5084524;28;43296;-69
2023/05/24 08:13:16;;;;;;;2.90;2.70;;;20.80;70.40;;;;;;5087674;27;43972;-70
2023/05/24 08:15:44;;;;;;;2.70;2.60;;;20.80;70.30;;;;;;5086645;28;44144;-70
2023/05/24 08:18:14;;;;;;;2.87;2.77;;;20.80;70.20;;;;;;5088140;27;43607;-70
2023/05/24 08:20:42;;;;;;;2.93;2.77;;;20.70;70.20;;;;;;5092513;27;43495;-69
2023/05/24 08:23:10;;;;;;;2.63;2.53;;;20.70;70.40;;;;;;5090625;27;44049;-69
2023/05/24 08:25:39;;;;;;;2.40;2.30;;;20.70;70.50;;;;;;5091319;27;43501;-69
2023/05/24 08:28:09;;;;;;;3.10;2.90;;;20.80;70.50;;;;;;5090578;27;43607;-70
2023/05/24 08:30:37;;;;;;;2.73;2.60;;;20.90;70.10;;;;;;5086272;28;45640;-70
2023/05/24 08:33:05;;;;;;;2.50;2.40;;;21.00;69.80;;;;;;5088324;28;43351;-69
2023/05/24 08:35:35;;;;;;;3.00;2.80;;;21.10;69.60;;;;;;5091377;27;44051;-69
2023/05/24 08:38:03;;;;;;;2.70;2.50;;;21.00;69.30;;;;;;5090276;27;43984;-70
2023/05/24 08:40:31;;;;;;;2.30;2.20;;;21.00;69.30;;;;;;5090596;28;43523;-69
2023/05/24 08:43:00;;;;;;;2.73;2.60;;;20.90;69.40;;;;;;5089656;27;43437;-70
2023/05/24 08:45:29;;;;;;;2.60;2.50;;;20.80;69.70;;;;;;5091240;28;43427;-69
2023/05/24 08:47:58;;;;;;;2.33;2.23;;;20.80;70.00;;;;;;5083744;27;43796;-70
2023/05/24 08:50:26;;;;;;;2.27;2.17;;;20.80;69.90;;;;;;5090252;27;43453;-70
2023/05/24 08:52:55;;;;;;;2.17;2.17;;;20.80;70.00;;;;;;5090757;28;43841;-69
2023/05/24 08:55:23;;;;;;;2.70;2.60;;;20.80;70.10;;;;;;5090725;28;43367;-69
2023/05/24 08:57:51;;;;;;;2.60;2.50;;;20.70;70.10;;;;;;5090052;27;43658;-70
2023/05/24 09:00:20;;;;;;;2.20;2.10;;;20.70;70.30;;;;;;5090404;27;43357;-71
2023/05/24 09:02:48;;;;;;;2.50;2.40;;;20.70;70.20;;;;;;5090613;28;43781;-69
2023/05/24 09:05:20;;;;;;;2.50;2.30;;;20.70;70.20;;;;;;5091022;27;43473;-70
2023/05/24 09:07:49;;;;;;;2.23;2.13;;;20.70;70.30;;;;;;5089203;28;43823;-70
2023/05/24 09:10:20;;;;;;;2.00;1.90;;;20.70;70.40;;;;;;5090580;28;43478;-69
2023/05/24 09:12:50;;;;;;;2.37;2.27;;;20.70;70.60;;;;;;5090508;28;43397;-68
2023/05/24 09:15:18;;;;;;;2.23;2.13;;;20.80;70.50;;;;;;5084799;27;44030;-70
2023/05/24 09:17:46;;;;;;;2.17;2.07;;;20.80;70.00;;;;;;5090783;27;43832;-69
2023/05/24 09:20:14;;;;;;;2.27;2.17;;;20.90;69.90;;;;;;5090276;27;43410;-69
2023/05/24 09:22:42;;;;;;;2.10;2.00;;;20.90;69.60;;;;;;5089355;27;43407;-70
2023/05/24 09:25:12;;;;;;;2.47;2.27;;;20.80;69.70;;;;;;5090809;27;43331;-69
2023/05/24 09:27:43;;;;;;;2.53;2.43;;;20.80;69.90;;;;;;5087522;28;44198;-69
2023/05/24 09:30:15;;;;;;;2.13;2.03;;;20.80;69.80;;;;;;5090138;27;43443;-69
2023/05/24 09:32:54;;;;;;;2.17;2.07;;;20.80;69.80;;;;;;5090955;27;43436;-70
2023/05/24 09:35:23;;;;;;;2.50;2.40;;;20.80;70.00;;;;;;5090391;28;43375;-71
2023/05/24 09:37:51;;;;;;;2.27;2.17;;;20.70;70.10;;;;;;5089772;27;43608;-70
2023/05/24 09:40:21;;;;;;;2.10;2.10;;;20.80;70.30;;;;;;5088554;27;43951;-69
2023/05/24 09:43:02;;;;;;;2.20;2.10;;;20.80;70.00;;;;;;5090105;28;43469;-70
2023/05/24 09:45:30;;;;;;;2.47;2.20;;;20.90;69.80;;;;;;5090496;27;43293;-69
2023/05/24 09:47:58;;;;;;;2.20;2.10;;;20.80;69.60;;;;;;5089801;28;43821;-69
2023/05/24 09:50:27;;;;;;;2.30;2.20;;;20.90;70.00;;;;;;5089560;27;43429;-69
2023/05/24 09:52:55;;;;;;;2.23;2.13;;;20.80;70.00;;;;;;5093551;27;43881;-69
2023/05/24 09:55:26;;;;;;;2.20;2.10;;;20.80;69.80;;;;;;5090035;27;43402;-69
2023/05/24 09:58:03;;;;;;;2.07;2.03;;;20.80;69.90;;;;;;5087672;28;45339;-69
2023/05/24 10:00:35;;;;;;;2.43;2.33;;;20.80;70.00;;;;;;5089481;27;43545;-69
2023/05/24 10:03:05;;;;;;;1.93;1.83;;;20.70;70.10;;;;;;5089160;28;43410;-71
2023/05/24 10:05:33;;;;;;;2.00;1.90;;;20.70;70.10;;;;;;5081604;28;43909;-69
2023/05/24 10:08:03;;;;;;;1.90;1.90;;;20.70;70.10;;;;;;5082855;28;43607;-69
2023/05/24 10:10:33;;;;;;;1.73;1.67;;;20.70;70.10;;;;;;5089250;28;43778;-69
2023/05/24 10:13:02;;;;;;;2.10;2.00;;;20.70;70.30;;;;;;5086493;27;43964;-69
2023/05/24 10:15:30;;;;;;;1.83;1.83;;;20.70;70.40;;;;;;5090114;27;43439;-68
2023/05/24 10:17:59;;;;;;;2.07;1.97;;;20.70;70.40;;;;;;5089464;27;43592;-69
2023/05/24 10:20:27;;;;;;;1.80;1.80;;;20.80;70.30;;;;;;5089281;27;43479;-68
2023/05/24 10:22:59;;;;;;;1.83;1.83;;;20.90;70.00;;;;;;5088243;27;43474;-69
2023/05/24 10:25:28;;;;;;;1.80;1.80;;;20.90;69.70;;;;;;5088436;27;43474;-69
2023/05/24 10:27:57;;;;;;;1.60;1.60;;;20.90;69.70;;;;;;5087145;27;43822;-69
2023/05/24 10:30:32;;;;;;;2.10;2.00;;;20.80;70.00;;;;;;5089161;27;43518;-69
2023/05/24 10:33:00;;;;;;;1.80;1.80;;;20.80;69.90;;;;;;5085807;28;43434;-69
2023/05/24 10:35:29;;;;;;;1.70;1.60;;;20.80;69.80;;;;;;5087912;28;43966;-69
2023/05/24 10:37:57;;;;;;;2.00;1.90;;;20.80;69.90;;;;;;5088864;27;43602;-69
2023/05/24 10:40:25;;;;;;;1.60;1.60;;;20.80;70.10;;;;;;5088052;28;43339;-69
2023/05/24 10:42:56;;;;;;;1.73;1.70;;;20.70;70.20;;;;;;5088768;27;43336;-69
2023/05/24 10:45:34;;;;;;;1.70;1.70;;;20.80;70.30;;;;;;5089602;27;43346;-69
2023/05/24 10:48:10;;;;;;;2.10;2.00;;;20.70;70.20;;;;;;5088455;27;43917;-68
2023/05/24 10:50:38;;;;;;;2.00;1.93;;;20.70;70.30;;;;;;5088420;28;43465;-68
2023/05/24 10:53:12;;;;;;;2.10;2.00;;;20.70;70.40;;;;;;5088740;28;43374;-69
2023/05/24 10:55:53;;;;;;;1.80;1.80;;;20.70;70.60;;;;;;5082738;27;44032;-70
2023/05/24 10:58:23;;;;;;;1.57;1.57;;;20.80;70.40;;;;;;5087246;28;45888;-69
2023/05/24 11:00:53;;;;;;;1.33;1.33;;;20.90;70.10;;;;;;5086278;28;43431;-69
2023/05/24 11:03:23;;;;;;;1.77;1.77;;;21.00;69.80;;;;;;5083870;28;43383;-70
2023/05/24 11:05:53;;;;;;;1.70;1.60;;;21.00;69.50;;;;;;5087588;28;43608;-69
2023/05/24 11:08:25;;;;;;;1.80;1.70;;;21.00;69.60;;;;;;5088162;27;44081;-70
2023/05/24 11:11:06;;;;;;;1.60;1.60;;;20.90;69.60;;;;;;5086766;28;44563;-69
2023/05/24 11:13:49;;;;;;;1.77;1.77;;;20.90;69.90;;;;;;5086277;27;43356;-70
2023/05/24 11:16:34;;;;;;;1.80;1.80;;;20.80;70.80;;;;;;5089272;27;43454;-69
2023/05/24 11:19:13;;;;;;;1.50;1.50;;;20.80;70.00;;;;;;5088509;28;43624;-69
2023/05/24 11:21:41;;;;;;;1.40;1.40;;;20.80;70.10;;;;;;5087845;27;43396;-69
2023/05/24 11:24:09;;;;;;;1.57;1.57;;;20.80;70.20;;;;;;5087783;27;43423;-69
2023/05/24 11:26:37;;;;;;;1.50;1.50;;;20.80;70.20;;;;;;5088893;27;43356;-69
2023/05/24 11:29:06;;;;;;;1.67;1.67;;;20.80;70.40;;;;;;5088149;27;43685;-69
2023/05/24 11:31:38;;;;;;;1.50;1.50;;;20.80;70.30;;;;;;5082744;28;43883;-69
2023/05/24 11:34:11;;;;;;;1.90;1.90;;;20.80;70.30;;;;;;5088428;27;43363;-68
2023/05/24 11:36:39;;;;;;;1.60;1.60;;;20.70;70.20;;;;;;5088939;27;43983;-69
2023/05/24 11:39:08;;;;;;;1.70;1.70;;;20.70;70.30;;;;;;5092522;27;43799;-69
2023/05/24 11:41:38;;;;;;;1.60;1.60;;;20.70;70.50;;;;;;5088295;27;43389;-68
2023/05/24 11:44:07;;;;;;;1.67;1.67;;;20.80;70.50;;;;;;5087493;28;43359;-69
2023/05/24 11:46:38;;;;;;;1.47;1.47;;;20.90;70.30;;;;;;5093732;27;43419;-69
2023/05/24 11:49:06;;;;;;;1.60;1.60;;;21.00;69.80;;;;;;5086264;28;43864;-71
2023/05/24 11:51:36;;;;;;;1.53;1.53;;;21.10;69.60;;;;;;5087865;27;43464;-71
2023/05/24 11:54:04;;;;;;;1.50;1.50;;;21.10;69.40;;;;;;5087427;27;43473;-71
2023/05/24 11:56:32;;;;;;;1.60;1.60;;;21.00;69.40;;;;;;5088407;27;43402;-70
2023/05/24 11:59:08;;;;;;;1.53;1.53;;;21.00;69.60;;;;;;5087453;27;43860;-68
2023/05/24 12:01:38;;;;;;;1.40;1.40;;;20.90;69.80;;;;;;5081003;28;43446;-69
2023/05/24 12:04:07;;;;;;;1.67;1.67;;;20.80;70.00;;;;;;5087541;27;44023;-70
2023/05/24 12:06:37;;;;;;;1.50;1.50;;;20.80;70.00;;;;;;5086373;27;43531;-69
2023/05/24 12:09:07;;;;;;;1.60;1.50;;;20.80;70.10;;;;;;5085190;28;45313;-70
2023/05/24 12:11:38;;;;;;;1.50;1.50;;;20.80;70.20;;;;;;5085818;28;44585;-70
2023/05/24 12:14:06;;;;;;;1.30;1.30;;;20.70;70.30;;;;;;5087620;27;43370;-69
2023/05/24 12:16:37;;;;;;;1.70;1.70;;;20.70;70.70;;;;;;5086424;28;44066;-69
2023/05/24 12:19:05;;;;;;;1.50;1.50;;;20.70;70.30;;;;;;5087586;28;43892;-69
2023/05/24 12:21:55;;;;;;;1.47;1.47;;;20.70;70.40;;;;;;5085860;27;44775;-70
2023/05/24 12:24:23;;;;;;;1.50;1.50;;;20.70;70.40;;;;;;5087338;28;43509;-69
2023/05/24 12:26:52;;;;;;;1.60;1.60;;;20.70;70.70;;;;;;5087987;28;43364;-69
2023/05/24 12:29:20;;;;;;;1.40;1.40;;;20.70;70.50;;;;;;5080906;28;43921;-69
2023/05/24 12:31:50;;;;;;;1.53;1.53;;;20.80;70.40;;;;;;5079002;28;43454;-71
2023/05/24 12:34:18;;;;;;;1.40;1.40;;;21.00;70.00;;;;;;5070135;28;43498;-69
2023/05/24 12:36:49;;;;;;;1.40;1.40;;;21.00;69.60;;;;;;5080308;28;43589;-70
2023/05/24 12:39:20;;;;;;;1.50;1.50;;;21.00;69.50;;;;;;5087473;27;43594;-69
2023/05/24 12:41:51;;;;;;;1.37;1.37;;;20.90;69.60;;;;;;5088124;27;44018;-69
2023/05/24 12:44:23;;;;;;;1.50;1.50;;;20.90;69.80;;;;;;5087216;28;43490;-71
2023/05/24 12:46:53;;;;;;;1.87;1.77;;;20.80;69.90;;;;;;5087577;27;43438;-69
2023/05/24 12:49:21;;;;;;;1.77;1.70;;;20.80;70.20;;;;;;5086899;27;43847;-69
2023/05/24 12:51:53;;;;;;;1.40;1.40;;;20.80;70.20;;;;;;5087219;28;43469;-71
2023/05/24 12:54:23;;;;;;;1.40;1.40;;;20.80;70.30;;;;;;5085625;28;43423;-70
2023/05/24 12:56:51;;;;;;;1.70;1.70;;;20.70;70.30;;;;;;5087479;27;43423;-69
2023/05/24 12:59:22;;;;;;;1.80;1.70;;;20.70;70.50;;;;;;5086812;27;43882;-69